Meteo Giornale » Osservazioni meteo Italia » Rimini

ore: 19:45 - Osservazioni Meteo Rimini
Lat. 44° 2' N Lon. 12° 37' E Alt. 12 metri s.l.m.

sereno Europe/Rome

20 °C

Sereno

Temp. 24 Ore

10 °C

23 °C

Nord

0 Km/h

Dew point 15 °C

Umidità 72 %

Visibilità  10 Km

Il sole sorge alle ore 06:09

Il sole tramonta alle ore 20:05

Data e Ora Cielo e Fenomeni T °C DP °C Um. % Pres. hPa Vis. km Vento km/h
Oggi h: 19:45 sereno Sereno 20 15 72 1016 10 N 0
Oggi h: 19:15 sereno Sereno 21 15 68 1016 10 N 5.5
Oggi h: 18:45 sereno Sereno 21 15 68 1016 10 E 9.3
Oggi h: 18:15 sereno Sereno 21 16 73 1016 10 N 5.5
Oggi h: 17:45 sereno Sereno 21 18 82 1017 10 N 5.5
Oggi h: 17:15 sereno Sereno 22 18 78 1017 10 E/NE 9.3
Oggi h: 16:45 sereno Sereno 22 18 78 1017 10 E/NE 9.3
Oggi h: 16:15 sereno Sereno 21 18 82 1017 10 N 5.5
Oggi h: 15:45 sereno Sereno 21 18 82 1017 10 NE 9.3
Oggi h: 15:15 sereno Sereno 22 18 78 1018 10 E/NE 9.3
Oggi h: 14:45 sereno Sereno 23 18 73 1018 10 NE 9.3
Oggi h: 14:15 sereno Sereno 23 16 64 1018 10 N/NE 11.1
Oggi h: 13:45 sereno Sereno 23 13 53 1018 10 N/NE 11.1
Oggi h: 13:15 sereno Sereno 23 12 49 1017 10 N/NE 11.1
Oggi h: 12:45 sereno Sereno 23 13 53 1017 10 N 9.3
Oggi h: 12:15 sereno Sereno 23 14 56 1017 10 N/NE 11.1
Oggi h: 11:45 sereno Sereno 23 14 56 1017 10 NE 7.4
Oggi h: 11:15 sereno Sereno 23 14 56 1017 10 N 5.5
Oggi h: 10:45 sereno Sereno 23 14 56 1017 10 N 3.7
Oggi h: 10:15 sereno Sereno 21 13 60 1017 10 N 0
Oggi h: 09:45 sereno Sereno 21 13 60 1017 10 N 1.8
Oggi h: 09:15 sereno Sereno 19 13 68 1017 10 N 0
Oggi h: 08:45 sereno Sereno 17 12 72 1017 10 N 1.8
Oggi h: 08:15 sereno Sereno 15 12 82 1016 10 N 3.7
Oggi h: 07:45 sereno Sereno 13 10 81 1016 10 N 3.7
Oggi h: 07:15 sereno Sereno 11 8 81 1016 10 N 3.7
Oggi h: 06:45 sereno Sereno 10 8 87 1015 10 N 1.8
Oggi h: 06:15 sereno Sereno 10 8 87 1015 10 N 1.8
Oggi h: 05:45 sereno Sereno 11 8 81 1015 10 N 3.7
Oggi h: 05:15 sereno Sereno 11 8 81 1015 10 N 3.7
Oggi h: 04:45 sereno Sereno 11 8 81 1015 10 N 3.7
Oggi h: 04:15 sereno Sereno 11 8 81 1015 10 N 1.8
Oggi h: 03:45 sereno Sereno 11 8 81 1015 10 N 3.7
Oggi h: 02:45 sereno Sereno 12 10 87 1015 10 N 3.7
Oggi h: 02:15 sereno Sereno 12 10 87 1015 10 N 5.5
Oggi h: 01:45 sereno Sereno 12 10 87 1015 10 N 5.5
Oggi h: 01:15 sereno Sereno 14 12 87 1015 10 N 0
Oggi h: 00:45 sereno Sereno 14 12 87 1015 10 N 0
Oggi h: 00:15 sereno Sereno 14 12 87 1015 10 N 0
Ieri h: 23:45 sereno Sereno 15 14 93 1015 10 N 1.8
Ieri h: 23:15 sereno Sereno 16 14 87 1015 10 N 3.7
Ieri h: 22:45 sereno Sereno 16 14 87 1015 10 N 5.5
Ieri h: 22:15 sereno Sereno 17 17 100 1015 10 N 0
Ieri h: 21:45 sereno Sereno 18 17 93 1015 10 N 0
Ieri h: 21:15 sereno Sereno 18 17 93 1015 10 N 0
Ieri h: 20:45 sereno Sereno 19 18 93 1015 10 N 1.8